東京理科大学Ⅰ部体育局航空部

このエントリーをはてなブックマークに追加

ようこそ、理科大航空部HPへ! ここでは、航空部に関する情報や、活動などをお知らせしています。


METAR・TAF

TOKYO INTERNATIONAL
Metar
RJTT 221400Z 05011KT 9999 FEW030 BKN045 18/10 Q1019 NOSIG RMK 2CU030 7SC045 A3009

14:00 UTC

Wind: 50° 11kt

Visibility: 9999 m

Sky: FEW 3000 ft

Temp: 18 deg C / 64.4 deg F

Dewpoint: 10 deg C / 50 deg F

Pressure: 1019 hPa

TAF
TAF RJTT 221107Z 2212/2318 07014KT 9999 FEW020 BKN040 BECMG 2212/2214 04014KT BECMG 2300/2303 08006KT BECMG 2306/2309 18010KT BECMG 2312/2315 12004KT
NARITA INTERNATIONAL
Metar
RJAA 221400Z 02007KT 9999 FEW025 BKN070 16/10 Q1019 NOSIG RMK 1CU025 7AC070 A3010

14:00 UTC

Wind: 20° 7kt

Visibility: 9999 m

Sky: FEW 2500 ft

Temp: 16 deg C / 60.8 deg F

Dewpoint: 10 deg C / 50 deg F

Pressure: 1019 hPa

TAF
TAF RJAA 221105Z 2212/2318 02008KT 9999 FEW020 BKN045 BECMG 2300/2303 14010KT BECMG 2312/2315 02005KT